sensor_id;sensor_type;location;lat;lon;timestamp;P1;durP1;ratioP1;P2;durP2;ratioP2
45836;SDS011;31548;51.420;-0.040;2023-08-01T00:00:19;5.18;;;1.70;;
45836;SDS011;31548;51.420;-0.040;2023-08-01T00:02:47;8.55;;;2.08;;
45836;SDS011;31548;51.420;-0.040;2023-08-01T00:05:15;13.52;;;2.03;;
45836;SDS011;31548;51.420;-0.040;2023-08-01T00:07:42;4.13;;;1.35;;
45836;SDS011;31548;51.420;-0.040;2023-08-01T00:10:12;9.02;;;1.23;;
45836;SDS011;31548;51.420;-0.040;2023-08-01T00:12:39;9.93;;;1.67;;
45836;SDS011;31548;51.420;-0.040;2023-08-01T00:15:07;8.13;;;1.40;;
45836;SDS011;31548;51.420;-0.040;2023-08-01T00:17:35;6.70;;;1.63;;
45836;SDS011;31548;51.420;-0.040;2023-08-01T00:20:02;10.88;;;2.97;;
45836;SDS011;31548;51.420;-0.040;2023-08-01T00:22:31;4.45;;;1.58;;
45836;SDS011;31548;51.420;-0.040;2023-08-01T00:24:58;7.13;;;2.17;;
45836;SDS011;31548;51.420;-0.040;2023-08-01T00:27:26;9.13;;;1.50;;
45836;SDS011;31548;51.420;-0.040;2023-08-01T00:29:53;8.63;;;2.03;;
45836;SDS011;31548;51.420;-0.040;2023-08-01T00:32:21;7.28;;;1.80;;
45836;SDS011;31548;51.420;-0.040;2023-08-01T00:34:50;12.82;;;2.05;;
45836;SDS011;31548;51.420;-0.040;2023-08-01T00:37:18;6.55;;;1.65;;
45836;SDS011;31548;51.420;-0.040;2023-08-01T00:39:45;11.23;;;1.88;;
45836;SDS011;31548;51.420;-0.040;2023-08-01T00:42:13;10.73;;;2.03;;
45836;SDS011;31548;51.420;-0.040;2023-08-01T00:44:40;13.93;;;2.05;;
45836;SDS011;31548;51.420;-0.040;2023-08-01T00:47:11;6.22;;;1.60;;
45836;SDS011;31548;51.420;-0.040;2023-08-01T00:49:38;8.18;;;1.75;;
45836;SDS011;31548;51.420;-0.040;2023-08-01T00:52:07;6.85;;;1.48;;
45836;SDS011;31548;51.420;-0.040;2023-08-01T00:54:35;7.80;;;1.85;;
45836;SDS011;31548;51.420;-0.040;2023-08-01T00:57:03;7.43;;;1.85;;
45836;SDS011;31548;51.420;-0.040;2023-08-01T00:59:32;8.90;;;1.95;;
45836;SDS011;31548;51.420;-0.040;2023-08-01T01:01:59;10.10;;;1.77;;
45836;SDS011;31548;51.420;-0.040;2023-08-01T01:04:27;10.13;;;2.22;;
45836;SDS011;31548;51.420;-0.040;2023-08-01T01:07:06;13.82;;;2.25;;
45836;SDS011;31548;51.420;-0.040;2023-08-01T01:09:34;11.05;;;2.35;;
45836;SDS011;31548;51.420;-0.040;2023-08-01T01:12:01;11.18;;;2.85;;
45836;SDS011;31548;51.420;-0.040;2023-08-01T01:14:31;11.65;;;2.75;;
45836;SDS011;31548;51.420;-0.040;2023-08-01T01:16:58;9.45;;;1.52;;
45836;SDS011;31548;51.420;-0.040;2023-08-01T01:19:26;7.93;;;1.60;;
45836;SDS011;31548;51.420;-0.040;2023-08-01T01:21:54;7.93;;;2.08;;
45836;SDS011;31548;51.420;-0.040;2023-08-01T01:24:22;12.63;;;3.53;;
45836;SDS011;31548;51.420;-0.040;2023-08-01T01:26:51;12.07;;;2.67;;
45836;SDS011;31548;51.420;-0.040;2023-08-01T01:29:21;9.88;;;2.03;;
45836;SDS011;31548;51.420;-0.040;2023-08-01T01:31:49;11.55;;;1.77;;
45836;SDS011;31548;51.420;-0.040;2023-08-01T01:34:18;10.70;;;1.98;;
45836;SDS011;31548;51.420;-0.040;2023-08-01T01:36:45;12.07;;;2.63;;
45836;SDS011;31548;51.420;-0.040;2023-08-01T01:39:13;9.10;;;2.25;;
45836;SDS011;31548;51.420;-0.040;2023-08-01T01:41:40;8.98;;;2.05;;
45836;SDS011;31548;51.420;-0.040;2023-08-01T01:44:08;10.77;;;2.08;;
45836;SDS011;31548;51.420;-0.040;2023-08-01T01:46:35;8.07;;;1.85;;
45836;SDS011;31548;51.420;-0.040;2023-08-01T01:49:03;7.75;;;1.55;;
45836;SDS011;31548;51.420;-0.040;2023-08-01T01:51:30;7.45;;;2.08;;
45836;SDS011;31548;51.420;-0.040;2023-08-01T01:53:58;14.05;;;2.03;;
45836;SDS011;31548;51.420;-0.040;2023-08-01T01:56:26;12.63;;;2.38;;
45836;SDS011;31548;51.420;-0.040;2023-08-01T01:58:53;11.93;;;2.15;;
45836;SDS011;31548;51.420;-0.040;2023-08-01T02:01:21;10.93;;;2.20;;
45836;SDS011;31548;51.420;-0.040;2023-08-01T02:03:48;7.40;;;2.05;;
45836;SDS011;31548;51.420;-0.040;2023-08-01T02:06:16;9.57;;;2.30;;
45836;SDS011;31548;51.420;-0.040;2023-08-01T02:08:43;6.70;;;1.55;;
45836;SDS011;31548;51.420;-0.040;2023-08-01T02:11:11;13.68;;;2.20;;
45836;SDS011;31548;51.420;-0.040;2023-08-01T02:13:40;8.73;;;1.73;;
45836;SDS011;31548;51.420;-0.040;2023-08-01T02:16:08;12.75;;;2.33;;
45836;SDS011;31548;51.420;-0.040;2023-08-01T02:18:35;8.57;;;2.00;;
45836;SDS011;31548;51.420;-0.040;2023-08-01T02:21:03;7.95;;;1.40;;
45836;SDS011;31548;51.420;-0.040;2023-08-01T02:23:31;5.30;;;1.60;;
45836;SDS011;31548;51.420;-0.040;2023-08-01T02:26:00;11.38;;;1.63;;
45836;SDS011;31548;51.420;-0.040;2023-08-01T02:28:28;15.10;;;3.13;;
45836;SDS011;31548;51.420;-0.040;2023-08-01T02:30:56;12.88;;;2.10;;
45836;SDS011;31548;51.420;-0.040;2023-08-01T02:33:23;8.43;;;2.00;;
45836;SDS011;31548;51.420;-0.040;2023-08-01T02:35:51;9.88;;;2.20;;
45836;SDS011;31548;51.420;-0.040;2023-08-01T02:38:18;14.43;;;2.78;;
45836;SDS011;31548;51.420;-0.040;2023-08-01T02:40:46;15.55;;;1.80;;
45836;SDS011;31548;51.420;-0.040;2023-08-01T02:43:13;11.45;;;2.00;;
45836;SDS011;31548;51.420;-0.040;2023-08-01T02:45:41;12.02;;;2.40;;
45836;SDS011;31548;51.420;-0.040;2023-08-01T02:48:09;4.65;;;1.95;;
45836;SDS011;31548;51.420;-0.040;2023-08-01T02:50:36;13.60;;;2.30;;
45836;SDS011;31548;51.420;-0.040;2023-08-01T02:53:04;14.93;;;2.95;;
45836;SDS011;31548;51.420;-0.040;2023-08-01T02:55:32;11.43;;;2.13;;
45836;SDS011;31548;51.420;-0.040;2023-08-01T02:57:59;10.70;;;1.90;;
45836;SDS011;31548;51.420;-0.040;2023-08-01T03:00:26;11.98;;;2.42;;
45836;SDS011;31548;51.420;-0.040;2023-08-01T03:02:54;7.65;;;2.17;;
45836;SDS011;31548;51.420;-0.040;2023-08-01T03:05:21;9.00;;;1.73;;
45836;SDS011;31548;51.420;-0.040;2023-08-01T03:07:49;11.13;;;1.80;;
45836;SDS011;31548;51.420;-0.040;2023-08-01T03:10:16;8.48;;;1.50;;
45836;SDS011;31548;51.420;-0.040;2023-08-01T03:13:02;13.10;;;1.92;;
45836;SDS011;31548;51.420;-0.040;2023-08-01T03:15:29;14.07;;;2.40;;
45836;SDS011;31548;51.420;-0.040;2023-08-01T03:17:56;10.15;;;1.90;;
45836;SDS011;31548;51.420;-0.040;2023-08-01T03:20:24;16.27;;;2.85;;
45836;SDS011;31548;51.420;-0.040;2023-08-01T03:22:51;7.22;;;1.70;;
45836;SDS011;31548;51.420;-0.040;2023-08-01T03:25:19;8.10;;;2.17;;
45836;SDS011;31548;51.420;-0.040;2023-08-01T03:27:46;11.90;;;1.65;;
45836;SDS011;31548;51.420;-0.040;2023-08-01T03:30:14;9.25;;;1.98;;
45836;SDS011;31548;51.420;-0.040;2023-08-01T03:32:41;10.60;;;1.58;;
45836;SDS011;31548;51.420;-0.040;2023-08-01T03:35:08;9.65;;;1.95;;
45836;SDS011;31548;51.420;-0.040;2023-08-01T03:37:36;10.43;;;1.80;;
45836;SDS011;31548;51.420;-0.040;2023-08-01T03:40:04;8.75;;;1.52;;
45836;SDS011;31548;51.420;-0.040;2023-08-01T03:42:32;9.73;;;1.85;;
45836;SDS011;31548;51.420;-0.040;2023-08-01T03:44:59;7.13;;;2.25;;
45836;SDS011;31548;51.420;-0.040;2023-08-01T03:47:27;15.95;;;2.92;;
45836;SDS011;31548;51.420;-0.040;2023-08-01T03:49:56;15.10;;;2.33;;
45836;SDS011;31548;51.420;-0.040;2023-08-01T03:52:25;10.55;;;1.85;;
45836;SDS011;31548;51.420;-0.040;2023-08-01T03:54:53;13.10;;;2.03;;
45836;SDS011;31548;51.420;-0.040;2023-08-01T03:57:21;12.75;;;1.90;;
45836;SDS011;31548;51.420;-0.040;2023-08-01T03:59:49;7.88;;;1.83;;
45836;SDS011;31548;51.420;-0.040;2023-08-01T04:02:16;11.50;;;2.00;;
45836;SDS011;31548;51.420;-0.040;2023-08-01T04:04:45;16.40;;;2.08;;
45836;SDS011;31548;51.420;-0.040;2023-08-01T04:07:12;14.60;;;2.05;;
45836;SDS011;31548;51.420;-0.040;2023-08-01T04:09:40;8.90;;;1.75;;
45836;SDS011;31548;51.420;-0.040;2023-08-01T04:12:07;8.90;;;1.85;;
45836;SDS011;31548;51.420;-0.040;2023-08-01T04:14:35;13.40;;;2.30;;
45836;SDS011;31548;51.420;-0.040;2023-08-01T04:17:02;13.05;;;1.77;;
45836;SDS011;31548;51.420;-0.040;2023-08-01T04:19:30;13.55;;;2.47;;
45836;SDS011;31548;51.420;-0.040;2023-08-01T04:21:58;5.85;;;1.50;;
45836;SDS011;31548;51.420;-0.040;2023-08-01T04:24:25;8.95;;;1.35;;
45836;SDS011;31548;51.420;-0.040;2023-08-01T04:26:57;12.07;;;1.95;;
45836;SDS011;31548;51.420;-0.040;2023-08-01T04:29:27;13.57;;;2.03;;
45836;SDS011;31548;51.420;-0.040;2023-08-01T04:31:55;13.20;;;1.90;;
45836;SDS011;31548;51.420;-0.040;2023-08-01T04:34:22;9.20;;;1.83;;
45836;SDS011;31548;51.420;-0.040;2023-08-01T04:36:50;6.40;;;1.58;;
45836;SDS011;31548;51.420;-0.040;2023-08-01T04:39:17;13.90;;;2.25;;
45836;SDS011;31548;51.420;-0.040;2023-08-01T04:41:45;11.18;;;1.65;;
45836;SDS011;31548;51.420;-0.040;2023-08-01T04:44:12;10.73;;;1.98;;
45836;SDS011;31548;51.420;-0.040;2023-08-01T04:46:40;12.60;;;1.65;;
45836;SDS011;31548;51.420;-0.040;2023-08-01T04:49:08;7.78;;;1.30;;
45836;SDS011;31548;51.420;-0.040;2023-08-01T04:51:35;9.68;;;1.63;;
45836;SDS011;31548;51.420;-0.040;2023-08-01T04:54:03;17.08;;;1.48;;
45836;SDS011;31548;51.420;-0.040;2023-08-01T04:56:30;13.27;;;1.67;;
45836;SDS011;31548;51.420;-0.040;2023-08-01T04:58:57;13.85;;;1.92;;
45836;SDS011;31548;51.420;-0.040;2023-08-01T05:01:25;10.35;;;1.70;;
45836;SDS011;31548;51.420;-0.040;2023-08-01T05:03:52;15.43;;;2.00;;
45836;SDS011;31548;51.420;-0.040;2023-08-01T05:06:20;7.10;;;1.17;;
45836;SDS011;31548;51.420;-0.040;2023-08-01T05:08:49;12.25;;;1.70;;
45836;SDS011;31548;51.420;-0.040;2023-08-01T05:11:17;7.90;;;1.60;;
45836;SDS011;31548;51.420;-0.040;2023-08-01T05:13:44;11.10;;;2.13;;
45836;SDS011;31548;51.420;-0.040;2023-08-01T05:16:12;14.63;;;1.80;;
45836;SDS011;31548;51.420;-0.040;2023-08-01T05:18:40;11.93;;;1.75;;
45836;SDS011;31548;51.420;-0.040;2023-08-01T05:21:08;12.75;;;1.63;;
45836;SDS011;31548;51.420;-0.040;2023-08-01T05:23:36;8.63;;;1.23;;
45836;SDS011;31548;51.420;-0.040;2023-08-01T05:26:03;9.63;;;1.77;;
45836;SDS011;31548;51.420;-0.040;2023-08-01T05:28:31;6.80;;;1.38;;
45836;SDS011;31548;51.420;-0.040;2023-08-01T05:30:58;13.13;;;2.08;;
45836;SDS011;31548;51.420;-0.040;2023-08-01T05:33:26;8.55;;;1.42;;
45836;SDS011;31548;51.420;-0.040;2023-08-01T05:35:53;8.65;;;1.55;;
45836;SDS011;31548;51.420;-0.040;2023-08-01T05:38:20;10.15;;;1.35;;
45836;SDS011;31548;51.420;-0.040;2023-08-01T05:40:48;9.45;;;1.95;;
45836;SDS011;31548;51.420;-0.040;2023-08-01T05:43:15;9.85;;;1.48;;
45836;SDS011;31548;51.420;-0.040;2023-08-01T05:45:43;12.45;;;2.13;;
45836;SDS011;31548;51.420;-0.040;2023-08-01T05:48:10;8.07;;;1.20;;
45836;SDS011;31548;51.420;-0.040;2023-08-01T05:50:42;6.55;;;1.10;;
45836;SDS011;31548;51.420;-0.040;2023-08-01T05:53:09;6.25;;;1.23;;
45836;SDS011;31548;51.420;-0.040;2023-08-01T05:55:37;9.40;;;1.10;;
45836;SDS011;31548;51.420;-0.040;2023-08-01T05:58:04;5.80;;;1.42;;
45836;SDS011;31548;51.420;-0.040;2023-08-01T06:00:32;9.07;;;1.45;;
45836;SDS011;31548;51.420;-0.040;2023-08-01T06:02:59;15.95;;;1.65;;
45836;SDS011;31548;51.420;-0.040;2023-08-01T06:05:28;6.97;;;1.20;;
45836;SDS011;31548;51.420;-0.040;2023-08-01T06:07:55;8.70;;;1.50;;
45836;SDS011;31548;51.420;-0.040;2023-08-01T06:10:23;6.07;;;1.00;;
45836;SDS011;31548;51.420;-0.040;2023-08-01T06:12:50;7.25;;;1.30;;
45836;SDS011;31548;51.420;-0.040;2023-08-01T06:15:20;14.18;;;1.55;;
45836;SDS011;31548;51.420;-0.040;2023-08-01T06:17:48;13.63;;;1.13;;
45836;SDS011;31548;51.420;-0.040;2023-08-01T06:20:16;7.97;;;1.38;;
45836;SDS011;31548;51.420;-0.040;2023-08-01T06:22:43;9.07;;;1.40;;
45836;SDS011;31548;51.420;-0.040;2023-08-01T06:25:10;11.60;;;1.10;;
45836;SDS011;31548;51.420;-0.040;2023-08-01T06:27:41;13.25;;;2.60;;
45836;SDS011;31548;51.420;-0.040;2023-08-01T06:30:09;7.38;;;1.17;;
45836;SDS011;31548;51.420;-0.040;2023-08-01T06:32:37;10.23;;;1.63;;
45836;SDS011;31548;51.420;-0.040;2023-08-01T06:35:04;15.13;;;2.08;;
45836;SDS011;31548;51.420;-0.040;2023-08-01T06:37:32;10.27;;;1.67;;
45836;SDS011;31548;51.420;-0.040;2023-08-01T06:40:00;9.77;;;1.30;;
45836;SDS011;31548;51.420;-0.040;2023-08-01T06:42:29;11.27;;;1.90;;
45836;SDS011;31548;51.420;-0.040;2023-08-01T06:44:57;6.38;;;1.40;;
45836;SDS011;31548;51.420;-0.040;2023-08-01T06:47:24;9.52;;;1.95;;
45836;SDS011;31548;51.420;-0.040;2023-08-01T06:49:52;8.35;;;1.33;;
45836;SDS011;31548;51.420;-0.040;2023-08-01T06:52:19;12.60;;;1.23;;
45836;SDS011;31548;51.420;-0.040;2023-08-01T06:54:47;14.57;;;1.58;;
45836;SDS011;31548;51.420;-0.040;2023-08-01T06:57:14;3.83;;;0.98;;
45836;SDS011;31548;51.420;-0.040;2023-08-01T06:59:42;10.40;;;1.90;;
45836;SDS011;31548;51.420;-0.040;2023-08-01T07:02:09;11.05;;;2.47;;
45836;SDS011;31548;51.420;-0.040;2023-08-01T07:04:37;3.75;;;0.80;;
45836;SDS011;31548;51.420;-0.040;2023-08-01T07:07:05;9.65;;;1.40;;
45836;SDS011;31548;51.420;-0.040;2023-08-01T07:09:33;11.02;;;1.42;;
45836;SDS011;31548;51.420;-0.040;2023-08-01T07:12:01;13.75;;;1.30;;
45836;SDS011;31548;51.420;-0.040;2023-08-01T07:14:28;9.63;;;1.02;;
45836;SDS011;31548;51.420;-0.040;2023-08-01T07:16:55;9.40;;;1.25;;
45836;SDS011;31548;51.420;-0.040;2023-08-01T07:19:23;7.10;;;1.00;;
45836;SDS011;31548;51.420;-0.040;2023-08-01T07:21:50;10.75;;;1.48;;
45836;SDS011;31548;51.420;-0.040;2023-08-01T07:24:18;7.70;;;1.00;;
45836;SDS011;31548;51.420;-0.040;2023-08-01T07:26:46;5.13;;;0.95;;
45836;SDS011;31548;51.420;-0.040;2023-08-01T07:29:13;6.68;;;1.05;;
45836;SDS011;31548;51.420;-0.040;2023-08-01T07:31:42;10.32;;;1.10;;
45836;SDS011;31548;51.420;-0.040;2023-08-01T07:34:13;7.45;;;0.80;;
45836;SDS011;31548;51.420;-0.040;2023-08-01T07:36:40;10.77;;;1.08;;
45836;SDS011;31548;51.420;-0.040;2023-08-01T07:39:08;7.55;;;1.10;;
45836;SDS011;31548;51.420;-0.040;2023-08-01T07:41:36;7.10;;;1.48;;
45836;SDS011;31548;51.420;-0.040;2023-08-01T07:44:04;5.20;;;0.77;;
45836;SDS011;31548;51.420;-0.040;2023-08-01T07:46:32;5.25;;;0.82;;
45836;SDS011;31548;51.420;-0.040;2023-08-01T07:48:59;6.18;;;0.98;;
45836;SDS011;31548;51.420;-0.040;2023-08-01T07:51:27;7.78;;;0.88;;
45836;SDS011;31548;51.420;-0.040;2023-08-01T07:53:56;5.82;;;0.80;;
45836;SDS011;31548;51.420;-0.040;2023-08-01T07:56:24;6.32;;;0.80;;
45836;SDS011;31548;51.420;-0.040;2023-08-01T07:58:51;6.85;;;0.85;;
45836;SDS011;31548;51.420;-0.040;2023-08-01T08:01:19;8.70;;;0.70;;
45836;SDS011;31548;51.420;-0.040;2023-08-01T08:03:46;5.03;;;0.80;;
45836;SDS011;31548;51.420;-0.040;2023-08-01T08:06:14;8.98;;;0.88;;
45836;SDS011;31548;51.420;-0.040;2023-08-01T08:08:41;8.68;;;1.00;;
45836;SDS011;31548;51.420;-0.040;2023-08-01T08:11:09;6.55;;;0.73;;
45836;SDS011;31548;51.420;-0.040;2023-08-01T08:13:36;8.40;;;0.70;;
45836;SDS011;31548;51.420;-0.040;2023-08-01T08:16:04;6.70;;;0.77;;
45836;SDS011;31548;51.420;-0.040;2023-08-01T08:18:32;4.63;;;0.60;;
45836;SDS011;31548;51.420;-0.040;2023-08-01T08:21:00;7.82;;;0.60;;
45836;SDS011;31548;51.420;-0.040;2023-08-01T08:23:29;6.47;;;0.88;;
45836;SDS011;31548;51.420;-0.040;2023-08-01T08:25:56;3.33;;;0.43;;
45836;SDS011;31548;51.420;-0.040;2023-08-01T08:28:28;10.40;;;0.80;;
45836;SDS011;31548;51.420;-0.040;2023-08-01T08:30:57;4.65;;;0.63;;
45836;SDS011;31548;51.420;-0.040;2023-08-01T08:33:24;6.50;;;0.80;;
45836;SDS011;31548;51.420;-0.040;2023-08-01T08:35:52;4.55;;;1.02;;
45836;SDS011;31548;51.420;-0.040;2023-08-01T08:38:20;6.47;;;1.20;;
45836;SDS011;31548;51.420;-0.040;2023-08-01T08:43:40;5.45;;;0.60;;
45836;SDS011;31548;51.420;-0.040;2023-08-01T08:46:09;3.38;;;0.70;;
45836;SDS011;31548;51.420;-0.040;2023-08-01T08:48:37;6.10;;;0.60;;
45836;SDS011;31548;51.420;-0.040;2023-08-01T08:51:07;7.70;;;0.60;;
45836;SDS011;31548;51.420;-0.040;2023-08-01T08:53:35;5.97;;;0.88;;
45836;SDS011;31548;51.420;-0.040;2023-08-01T08:56:03;2.55;;;0.60;;
45836;SDS011;31548;51.420;-0.040;2023-08-01T08:58:31;9.07;;;0.60;;
45836;SDS011;31548;51.420;-0.040;2023-08-01T09:00:59;2.58;;;0.40;;
45836;SDS011;31548;51.420;-0.040;2023-08-01T09:03:30;2.83;;;0.40;;
45836;SDS011;31548;51.420;-0.040;2023-08-01T09:06:05;2.55;;;0.45;;
45836;SDS011;31548;51.420;-0.040;2023-08-01T09:08:36;2.30;;;0.43;;
45836;SDS011;31548;51.420;-0.040;2023-08-01T09:11:05;5.95;;;0.60;;
45836;SDS011;31548;51.420;-0.040;2023-08-01T09:13:33;2.42;;;0.50;;
45836;SDS011;31548;51.420;-0.040;2023-08-01T09:16:02;2.92;;;0.50;;
45836;SDS011;31548;51.420;-0.040;2023-08-01T09:18:29;4.18;;;1.17;;
45836;SDS011;31548;51.420;-0.040;2023-08-01T09:20:58;3.08;;;0.30;;
45836;SDS011;31548;51.420;-0.040;2023-08-01T09:23:31;3.08;;;0.50;;
45836;SDS011;31548;51.420;-0.040;2023-08-01T09:25:58;2.10;;;0.40;;
45836;SDS011;31548;51.420;-0.040;2023-08-01T09:28:26;10.68;;;0.70;;
45836;SDS011;31548;51.420;-0.040;2023-08-01T09:30:55;3.83;;;0.85;;
45836;SDS011;31548;51.420;-0.040;2023-08-01T09:33:24;2.83;;;0.80;;
45836;SDS011;31548;51.420;-0.040;2023-08-01T09:35:52;4.90;;;0.45;;
45836;SDS011;31548;51.420;-0.040;2023-08-01T09:38:20;1.65;;;0.30;;
45836;SDS011;31548;51.420;-0.040;2023-08-01T09:40:47;3.25;;;0.47;;
45836;SDS011;31548;51.420;-0.040;2023-08-01T09:43:16;2.42;;;0.50;;
45836;SDS011;31548;51.420;-0.040;2023-08-01T09:45:53;4.13;;;0.60;;
45836;SDS011;31548;51.420;-0.040;2023-08-01T09:48:22;3.38;;;0.68;;
45836;SDS011;31548;51.420;-0.040;2023-08-01T09:50:51;2.97;;;0.65;;
45836;SDS011;31548;51.420;-0.040;2023-08-01T09:53:20;4.30;;;0.50;;
45836;SDS011;31548;51.420;-0.040;2023-08-01T09:55:47;4.38;;;0.50;;
45836;SDS011;31548;51.420;-0.040;2023-08-01T09:58:17;5.05;;;0.45;;
45836;SDS011;31548;51.420;-0.040;2023-08-01T10:00:49;3.85;;;0.60;;
45836;SDS011;31548;51.420;-0.040;2023-08-01T10:03:17;3.58;;;0.55;;
45836;SDS011;31548;51.420;-0.040;2023-08-01T10:05:48;4.32;;;0.50;;
45836;SDS011;31548;51.420;-0.040;2023-08-01T10:08:20;7.20;;;0.57;;
45836;SDS011;31548;51.420;-0.040;2023-08-01T10:10:49;4.28;;;0.30;;
45836;SDS011;31548;51.420;-0.040;2023-08-01T10:13:17;2.85;;;0.43;;
45836;SDS011;31548;51.420;-0.040;2023-08-01T10:15:50;4.32;;;1.02;;
45836;SDS011;31548;51.420;-0.040;2023-08-01T10:18:18;3.65;;;0.43;;
45836;SDS011;31548;51.420;-0.040;2023-08-01T10:20:46;3.70;;;0.47;;
45836;SDS011;31548;51.420;-0.040;2023-08-01T10:23:15;4.22;;;0.50;;
45836;SDS011;31548;51.420;-0.040;2023-08-01T10:25:43;3.33;;;0.45;;
45836;SDS011;31548;51.420;-0.040;2023-08-01T10:28:12;4.25;;;0.40;;
45836;SDS011;31548;51.420;-0.040;2023-08-01T10:30:39;5.97;;;0.60;;
45836;SDS011;31548;51.420;-0.040;2023-08-01T10:33:06;7.05;;;0.63;;
45836;SDS011;31548;51.420;-0.040;2023-08-01T10:35:39;3.47;;;0.43;;
45836;SDS011;31548;51.420;-0.040;2023-08-01T10:38:08;2.38;;;0.40;;
45836;SDS011;31548;51.420;-0.040;2023-08-01T10:41:00;2.00;;;0.52;;
45836;SDS011;31548;51.420;-0.040;2023-08-01T10:43:27;2.15;;;0.47;;
45836;SDS011;31548;51.420;-0.040;2023-08-01T10:46:03;1.48;;;0.30;;
45836;SDS011;31548;51.420;-0.040;2023-08-01T10:48:31;3.08;;;0.30;;
45836;SDS011;31548;51.420;-0.040;2023-08-01T10:50:58;1.77;;;0.40;;
45836;SDS011;31548;51.420;-0.040;2023-08-01T10:53:26;2.08;;;0.40;;
45836;SDS011;31548;51.420;-0.040;2023-08-01T10:56:14;1.85;;;0.30;;
45836;SDS011;31548;51.420;-0.040;2023-08-01T10:58:46;1.73;;;0.35;;
45836;SDS011;31548;51.420;-0.040;2023-08-01T11:01:14;5.45;;;0.30;;
45836;SDS011;31548;51.420;-0.040;2023-08-01T11:03:44;6.15;;;0.77;;
45836;SDS011;31548;51.420;-0.040;2023-08-01T11:06:12;4.93;;;0.45;;
45836;SDS011;31548;51.420;-0.040;2023-08-01T11:08:39;1.42;;;0.38;;
45836;SDS011;31548;51.420;-0.040;2023-08-01T11:11:11;1.00;;;0.32;;
45836;SDS011;31548;51.420;-0.040;2023-08-01T11:13:49;2.27;;;0.30;;
45836;SDS011;31548;51.420;-0.040;2023-08-01T11:16:18;1.95;;;0.30;;
45836;SDS011;31548;51.420;-0.040;2023-08-01T11:18:46;3.97;;;0.90;;
45836;SDS011;31548;51.420;-0.040;2023-08-01T11:21:23;1.10;;;0.25;;
45836;SDS011;31548;51.420;-0.040;2023-08-01T11:23:54;1.27;;;0.20;;
45836;SDS011;31548;51.420;-0.040;2023-08-01T11:26:23;1.60;;;0.47;;
45836;SDS011;31548;51.420;-0.040;2023-08-01T11:28:50;1.85;;;0.32;;
45836;SDS011;31548;51.420;-0.040;2023-08-01T11:31:18;1.92;;;0.35;;
45836;SDS011;31548;51.420;-0.040;2023-08-01T11:33:54;1.17;;;0.25;;
45836;SDS011;31548;51.420;-0.040;2023-08-01T11:36:26;0.60;;;0.20;;
45836;SDS011;31548;51.420;-0.040;2023-08-01T11:38:58;4.45;;;0.30;;
45836;SDS011;31548;51.420;-0.040;2023-08-01T11:41:27;1.13;;;0.30;;
45836;SDS011;31548;51.420;-0.040;2023-08-01T11:43:55;1.42;;;0.30;;
45836;SDS011;31548;51.420;-0.040;2023-08-01T11:46:22;1.30;;;0.40;;
45836;SDS011;31548;51.420;-0.040;2023-08-01T11:48:58;2.83;;;0.40;;
45836;SDS011;31548;51.420;-0.040;2023-08-01T11:51:27;1.13;;;0.47;;
45836;SDS011;31548;51.420;-0.040;2023-08-01T11:54:02;3.03;;;0.35;;
45836;SDS011;31548;51.420;-0.040;2023-08-01T11:56:31;4.50;;;0.47;;
45836;SDS011;31548;51.420;-0.040;2023-08-01T11:58:58;3.60;;;0.40;;
45836;SDS011;31548;51.420;-0.040;2023-08-01T12:01:26;1.17;;;0.30;;
45836;SDS011;31548;51.420;-0.040;2023-08-01T12:03:55;0.95;;;0.40;;
45836;SDS011;31548;51.420;-0.040;2023-08-01T12:06:25;5.43;;;0.40;;
45836;SDS011;31548;51.420;-0.040;2023-08-01T12:08:52;2.08;;;0.55;;
45836;SDS011;31548;51.420;-0.040;2023-08-01T12:11:26;3.85;;;0.40;;
45836;SDS011;31548;51.420;-0.040;2023-08-01T12:14:03;1.20;;;0.35;;
45836;SDS011;31548;51.420;-0.040;2023-08-01T12:16:40;5.90;;;0.65;;
45836;SDS011;31548;51.420;-0.040;2023-08-01T12:19:09;2.35;;;0.45;;
45836;SDS011;31548;51.420;-0.040;2023-08-01T12:21:36;3.35;;;0.47;;
45836;SDS011;31548;51.420;-0.040;2023-08-01T12:24:03;1.55;;;0.30;;
45836;SDS011;31548;51.420;-0.040;2023-08-01T12:26:31;2.70;;;0.30;;
45836;SDS011;31548;51.420;-0.040;2023-08-01T12:28:58;3.15;;;0.50;;
45836;SDS011;31548;51.420;-0.040;2023-08-01T12:31:26;1.90;;;0.35;;
45836;SDS011;31548;51.420;-0.040;2023-08-01T12:33:53;1.45;;;0.30;;
45836;SDS011;31548;51.420;-0.040;2023-08-01T12:36:21;2.17;;;0.50;;
45836;SDS011;31548;51.420;-0.040;2023-08-01T12:38:49;3.22;;;0.65;;
45836;SDS011;31548;51.420;-0.040;2023-08-01T12:41:17;2.83;;;0.40;;
45836;SDS011;31548;51.420;-0.040;2023-08-01T12:43:47;3.80;;;0.40;;
45836;SDS011;31548;51.420;-0.040;2023-08-01T12:46:14;0.98;;;0.20;;
45836;SDS011;31548;51.420;-0.040;2023-08-01T12:48:42;2.35;;;0.50;;
45836;SDS011;31548;51.420;-0.040;2023-08-01T12:51:10;2.17;;;0.30;;
45836;SDS011;31548;51.420;-0.040;2023-08-01T12:53:37;1.80;;;0.50;;
45836;SDS011;31548;51.420;-0.040;2023-08-01T12:56:10;2.47;;;0.40;;
45836;SDS011;31548;51.420;-0.040;2023-08-01T12:58:37;1.15;;;0.32;;
45836;SDS011;31548;51.420;-0.040;2023-08-01T13:01:05;5.43;;;0.57;;
45836;SDS011;31548;51.420;-0.040;2023-08-01T13:03:33;2.78;;;0.70;;
45836;SDS011;31548;51.420;-0.040;2023-08-01T13:06:00;2.58;;;0.93;;
45836;SDS011;31548;51.420;-0.040;2023-08-01T13:08:28;2.25;;;0.40;;
45836;SDS011;31548;51.420;-0.040;2023-08-01T13:10:56;4.20;;;0.43;;
45836;SDS011;31548;51.420;-0.040;2023-08-01T13:13:26;4.68;;;0.57;;
45836;SDS011;31548;51.420;-0.040;2023-08-01T13:15:55;2.00;;;0.40;;
45836;SDS011;31548;51.420;-0.040;2023-08-01T13:18:23;1.35;;;0.40;;
45836;SDS011;31548;51.420;-0.040;2023-08-01T13:20:51;1.65;;;0.30;;
45836;SDS011;31548;51.420;-0.040;2023-08-01T13:23:18;4.53;;;0.60;;
45836;SDS011;31548;51.420;-0.040;2023-08-01T13:25:45;1.55;;;0.40;;
45836;SDS011;31548;51.420;-0.040;2023-08-01T13:28:15;5.57;;;0.50;;
45836;SDS011;31548;51.420;-0.040;2023-08-01T13:30:42;1.98;;;0.50;;
45836;SDS011;31548;51.420;-0.040;2023-08-01T13:33:11;1.48;;;0.40;;
45836;SDS011;31548;51.420;-0.040;2023-08-01T13:35:38;1.75;;;0.50;;
45836;SDS011;31548;51.420;-0.040;2023-08-01T13:38:06;3.42;;;0.50;;
45836;SDS011;31548;51.420;-0.040;2023-08-01T13:40:33;1.17;;;0.43;;
45836;SDS011;31548;51.420;-0.040;2023-08-01T13:43:02;1.17;;;0.40;;
45836;SDS011;31548;51.420;-0.040;2023-08-01T13:45:30;2.13;;;0.60;;
45836;SDS011;31548;51.420;-0.040;2023-08-01T13:47:58;1.13;;;0.35;;
45836;SDS011;31548;51.420;-0.040;2023-08-01T13:50:28;2.45;;;0.47;;
45836;SDS011;31548;51.420;-0.040;2023-08-01T13:52:56;2.10;;;0.50;;
45836;SDS011;31548;51.420;-0.040;2023-08-01T13:55:23;2.97;;;0.38;;
45836;SDS011;31548;51.420;-0.040;2023-08-01T13:57:51;4.28;;;0.40;;
45836;SDS011;31548;51.420;-0.040;2023-08-01T14:00:18;0.80;;;0.40;;
45836;SDS011;31548;51.420;-0.040;2023-08-01T14:02:46;2.78;;;0.40;;
45836;SDS011;31548;51.420;-0.040;2023-08-01T14:05:17;2.45;;;0.47;;
45836;SDS011;31548;51.420;-0.040;2023-08-01T14:07:44;2.75;;;0.43;;
45836;SDS011;31548;51.420;-0.040;2023-08-01T14:10:13;1.10;;;0.40;;
45836;SDS011;31548;51.420;-0.040;2023-08-01T14:12:41;2.35;;;0.55;;
45836;SDS011;31548;51.420;-0.040;2023-08-01T14:15:09;2.15;;;0.40;;
45836;SDS011;31548;51.420;-0.040;2023-08-01T14:17:37;5.18;;;0.80;;
45836;SDS011;31548;51.420;-0.040;2023-08-01T14:20:09;1.55;;;0.50;;
45836;SDS011;31548;51.420;-0.040;2023-08-01T14:22:37;1.58;;;0.63;;
45836;SDS011;31548;51.420;-0.040;2023-08-01T14:25:05;4.55;;;0.82;;
45836;SDS011;31548;51.420;-0.040;2023-08-01T14:27:34;1.48;;;0.40;;
45836;SDS011;31548;51.420;-0.040;2023-08-01T14:30:01;2.47;;;0.38;;
45836;SDS011;31548;51.420;-0.040;2023-08-01T14:32:29;1.85;;;0.55;;
45836;SDS011;31548;51.420;-0.040;2023-08-01T14:34:56;1.75;;;0.60;;
45836;SDS011;31548;51.420;-0.040;2023-08-01T14:37:25;3.38;;;0.40;;
45836;SDS011;31548;51.420;-0.040;2023-08-01T14:39:52;2.10;;;0.40;;